sensor_id;sensor_type;location;lat;lon;timestamp;P1;durP1;ratioP1;P2;durP2;ratioP2
67979;SDS011;54760;47.490;19.030;2022-09-13T00:01:28;4.75;;;2.10;;
67979;SDS011;54760;47.490;19.030;2022-09-13T00:03:53;3.03;;;2.03;;
67979;SDS011;54760;47.490;19.030;2022-09-13T00:06:19;3.45;;;2.08;;
67979;SDS011;54760;47.490;19.030;2022-09-13T00:08:45;3.03;;;1.95;;
67979;SDS011;54760;47.490;19.030;2022-09-13T00:11:19;4.43;;;2.30;;
67979;SDS011;54760;47.490;19.030;2022-09-13T00:13:46;3.10;;;1.95;;
67979;SDS011;54760;47.490;19.030;2022-09-13T00:16:12;3.95;;;2.08;;
67979;SDS011;54760;47.490;19.030;2022-09-13T00:18:39;5.18;;;2.03;;
67979;SDS011;54760;47.490;19.030;2022-09-13T00:21:06;3.00;;;2.03;;
67979;SDS011;54760;47.490;19.030;2022-09-13T00:23:37;2.62;;;1.70;;
67979;SDS011;54760;47.490;19.030;2022-09-13T00:26:07;3.37;;;2.10;;
67979;SDS011;54760;47.490;19.030;2022-09-13T00:28:35;3.50;;;1.90;;
67979;SDS011;54760;47.490;19.030;2022-09-13T00:31:01;3.30;;;2.22;;
67979;SDS011;54760;47.490;19.030;2022-09-13T00:33:28;3.92;;;1.95;;
67979;SDS011;54760;47.490;19.030;2022-09-13T00:35:54;3.08;;;1.73;;
67979;SDS011;54760;47.490;19.030;2022-09-13T00:38:20;2.70;;;1.98;;
67979;SDS011;54760;47.490;19.030;2022-09-13T00:40:45;4.45;;;2.25;;
67979;SDS011;54760;47.490;19.030;2022-09-13T00:43:12;3.20;;;2.00;;
67979;SDS011;54760;47.490;19.030;2022-09-13T00:45:42;2.70;;;2.00;;
67979;SDS011;54760;47.490;19.030;2022-09-13T00:48:09;3.75;;;2.17;;
67979;SDS011;54760;47.490;19.030;2022-09-13T00:50:44;2.80;;;2.10;;
67979;SDS011;54760;47.490;19.030;2022-09-13T00:53:15;2.60;;;1.90;;
67979;SDS011;54760;47.490;19.030;2022-09-13T00:55:57;2.65;;;1.90;;
67979;SDS011;54760;47.490;19.030;2022-09-13T00:58:24;3.00;;;1.70;;
67979;SDS011;54760;47.490;19.030;2022-09-13T01:00:55;3.35;;;1.98;;
67979;SDS011;54760;47.490;19.030;2022-09-13T01:03:23;5.70;;;2.10;;
67979;SDS011;54760;47.490;19.030;2022-09-13T01:06:02;3.12;;;2.10;;
67979;SDS011;54760;47.490;19.030;2022-09-13T01:08:33;3.10;;;2.12;;
67979;SDS011;54760;47.490;19.030;2022-09-13T01:11:01;2.90;;;1.75;;
67979;SDS011;54760;47.490;19.030;2022-09-13T01:13:29;4.12;;;2.10;;
67979;SDS011;54760;47.490;19.030;2022-09-13T01:15:57;3.65;;;2.00;;
67979;SDS011;54760;47.490;19.030;2022-09-13T01:18:23;2.87;;;1.95;;
67979;SDS011;54760;47.490;19.030;2022-09-13T01:26:27;2.87;;;2.08;;
67979;SDS011;54760;47.490;19.030;2022-09-13T01:32:32;3.45;;;1.90;;
67979;SDS011;54760;47.490;19.030;2022-09-13T01:35:13;2.28;;;1.80;;
67979;SDS011;54760;47.490;19.030;2022-09-13T01:38:07;2.60;;;1.80;;
67979;SDS011;54760;47.490;19.030;2022-09-13T01:55:27;2.47;;;1.85;;
67979;SDS011;54760;47.490;19.030;2022-09-13T01:57:53;3.53;;;1.85;;
67979;SDS011;54760;47.490;19.030;2022-09-13T02:00:27;3.15;;;2.22;;
67979;SDS011;54760;47.490;19.030;2022-09-13T02:03:22;4.20;;;2.20;;
67979;SDS011;54760;47.490;19.030;2022-09-13T02:05:56;3.45;;;2.03;;
67979;SDS011;54760;47.490;19.030;2022-09-13T02:08:32;3.35;;;2.00;;
67979;SDS011;54760;47.490;19.030;2022-09-13T02:11:04;4.37;;;2.12;;
67979;SDS011;54760;47.490;19.030;2022-09-13T02:13:35;2.95;;;1.90;;
67979;SDS011;54760;47.490;19.030;2022-09-13T02:16:18;3.20;;;2.20;;
67979;SDS011;54760;47.490;19.030;2022-09-13T02:18:53;2.37;;;1.90;;
67979;SDS011;54760;47.490;19.030;2022-09-13T02:21:25;4.30;;;2.00;;
67979;SDS011;54760;47.490;19.030;2022-09-13T02:23:59;2.58;;;1.98;;
67979;SDS011;54760;47.490;19.030;2022-09-13T02:26:27;3.67;;;1.80;;
67979;SDS011;54760;47.490;19.030;2022-09-13T02:28:56;3.60;;;2.10;;
67979;SDS011;54760;47.490;19.030;2022-09-13T02:31:30;5.10;;;2.00;;
67979;SDS011;54760;47.490;19.030;2022-09-13T02:34:02;3.20;;;2.00;;
67979;SDS011;54760;47.490;19.030;2022-09-13T02:36:32;3.05;;;2.10;;
67979;SDS011;54760;47.490;19.030;2022-09-13T02:39:02;4.40;;;2.58;;
67979;SDS011;54760;47.490;19.030;2022-09-13T02:49:28;2.60;;;1.92;;
67979;SDS011;54760;47.490;19.030;2022-09-13T02:57:50;3.67;;;2.20;;
67979;SDS011;54760;47.490;19.030;2022-09-13T03:00:23;5.87;;;2.10;;
67979;SDS011;54760;47.490;19.030;2022-09-13T03:02:49;4.28;;;2.20;;
67979;SDS011;54760;47.490;19.030;2022-09-13T03:05:16;3.35;;;2.15;;
67979;SDS011;54760;47.490;19.030;2022-09-13T03:07:42;3.22;;;2.00;;
67979;SDS011;54760;47.490;19.030;2022-09-13T03:10:10;4.05;;;2.20;;
67979;SDS011;54760;47.490;19.030;2022-09-13T03:23:35;5.85;;;2.28;;
67979;SDS011;54760;47.490;19.030;2022-09-13T03:32:18;5.35;;;2.03;;
67979;SDS011;54760;47.490;19.030;2022-09-13T03:34:58;4.25;;;2.10;;
67979;SDS011;54760;47.490;19.030;2022-09-13T03:37:35;3.42;;;2.12;;
67979;SDS011;54760;47.490;19.030;2022-09-13T03:40:13;5.22;;;2.40;;
67979;SDS011;54760;47.490;19.030;2022-09-13T03:45:24;3.78;;;2.40;;
67979;SDS011;54760;47.490;19.030;2022-09-13T03:47:54;5.22;;;2.10;;
67979;SDS011;54760;47.490;19.030;2022-09-13T03:50:21;8.82;;;2.25;;
67979;SDS011;54760;47.490;19.030;2022-09-13T03:52:50;3.58;;;2.00;;
67979;SDS011;54760;47.490;19.030;2022-09-13T03:55:20;3.20;;;2.20;;
67979;SDS011;54760;47.490;19.030;2022-09-13T03:57:46;5.10;;;2.50;;
67979;SDS011;54760;47.490;19.030;2022-09-13T04:00:12;5.68;;;2.22;;
67979;SDS011;54760;47.490;19.030;2022-09-13T04:02:39;5.60;;;2.37;;
67979;SDS011;54760;47.490;19.030;2022-09-13T04:05:04;6.18;;;2.55;;
67979;SDS011;54760;47.490;19.030;2022-09-13T04:07:30;3.90;;;2.37;;
67979;SDS011;54760;47.490;19.030;2022-09-13T04:09:56;3.67;;;2.35;;
67979;SDS011;54760;47.490;19.030;2022-09-13T04:12:21;4.22;;;2.33;;
67979;SDS011;54760;47.490;19.030;2022-09-13T04:14:47;4.53;;;2.55;;
67979;SDS011;54760;47.490;19.030;2022-09-13T04:17:13;2.97;;;2.28;;
67979;SDS011;54760;47.490;19.030;2022-09-13T04:19:39;8.05;;;2.80;;
67979;SDS011;54760;47.490;19.030;2022-09-13T04:22:05;5.97;;;2.62;;
67979;SDS011;54760;47.490;19.030;2022-09-13T04:24:31;4.37;;;2.55;;
67979;SDS011;54760;47.490;19.030;2022-09-13T04:26:57;4.03;;;2.80;;
67979;SDS011;54760;47.490;19.030;2022-09-13T04:29:23;6.22;;;2.60;;
67979;SDS011;54760;47.490;19.030;2022-09-13T04:31:50;6.95;;;2.78;;
67979;SDS011;54760;47.490;19.030;2022-09-13T04:34:17;5.30;;;2.33;;
67979;SDS011;54760;47.490;19.030;2022-09-13T04:36:43;6.87;;;2.80;;
67979;SDS011;54760;47.490;19.030;2022-09-13T04:39:09;4.12;;;2.42;;
67979;SDS011;54760;47.490;19.030;2022-09-13T04:41:35;5.25;;;2.35;;
67979;SDS011;54760;47.490;19.030;2022-09-13T04:44:00;9.38;;;2.80;;
67979;SDS011;54760;47.490;19.030;2022-09-13T04:46:27;4.90;;;2.75;;
67979;SDS011;54760;47.490;19.030;2022-09-13T04:48:53;6.57;;;2.62;;
67979;SDS011;54760;47.490;19.030;2022-09-13T04:51:19;5.55;;;2.40;;
67979;SDS011;54760;47.490;19.030;2022-09-13T04:53:46;3.90;;;2.80;;
67979;SDS011;54760;47.490;19.030;2022-09-13T04:56:16;9.70;;;3.20;;
67979;SDS011;54760;47.490;19.030;2022-09-13T04:58:43;8.85;;;2.78;;
67979;SDS011;54760;47.490;19.030;2022-09-13T05:01:09;7.75;;;2.90;;
67979;SDS011;54760;47.490;19.030;2022-09-13T05:03:35;6.78;;;3.37;;
67979;SDS011;54760;47.490;19.030;2022-09-13T05:06:07;11.05;;;3.00;;
67979;SDS011;54760;47.490;19.030;2022-09-13T05:08:34;7.20;;;2.80;;
67979;SDS011;54760;47.490;19.030;2022-09-13T05:11:00;8.57;;;2.75;;
67979;SDS011;54760;47.490;19.030;2022-09-13T05:13:27;6.62;;;2.80;;
67979;SDS011;54760;47.490;19.030;2022-09-13T05:15:54;9.50;;;2.92;;
67979;SDS011;54760;47.490;19.030;2022-09-13T05:18:21;4.82;;;2.80;;
67979;SDS011;54760;47.490;19.030;2022-09-13T05:20:47;4.35;;;3.25;;
67979;SDS011;54760;47.490;19.030;2022-09-13T05:23:12;4.93;;;2.85;;
67979;SDS011;54760;47.490;19.030;2022-09-13T05:25:37;7.80;;;3.37;;
67979;SDS011;54760;47.490;19.030;2022-09-13T05:28:03;3.78;;;2.80;;
67979;SDS011;54760;47.490;19.030;2022-09-13T05:30:28;5.20;;;2.90;;
67979;SDS011;54760;47.490;19.030;2022-09-13T05:32:53;5.30;;;2.97;;
67979;SDS011;54760;47.490;19.030;2022-09-13T05:35:19;9.85;;;2.95;;
67979;SDS011;54760;47.490;19.030;2022-09-13T05:37:44;7.20;;;3.30;;
67979;SDS011;54760;47.490;19.030;2022-09-13T05:40:09;6.78;;;3.22;;
67979;SDS011;54760;47.490;19.030;2022-09-13T05:42:35;6.55;;;2.72;;
67979;SDS011;54760;47.490;19.030;2022-09-13T05:45:00;8.70;;;3.10;;
67979;SDS011;54760;47.490;19.030;2022-09-13T05:47:26;5.15;;;3.00;;
67979;SDS011;54760;47.490;19.030;2022-09-13T05:49:51;10.48;;;3.42;;
67979;SDS011;54760;47.490;19.030;2022-09-13T05:52:16;9.52;;;3.30;;
67979;SDS011;54760;47.490;19.030;2022-09-13T05:54:42;5.40;;;3.12;;
67979;SDS011;54760;47.490;19.030;2022-09-13T05:57:07;12.45;;;3.17;;
67979;SDS011;54760;47.490;19.030;2022-09-13T05:59:32;10.00;;;3.72;;
67979;SDS011;54760;47.490;19.030;2022-09-13T06:01:58;10.05;;;3.40;;
67979;SDS011;54760;47.490;19.030;2022-09-13T06:04:23;7.60;;;3.40;;
67979;SDS011;54760;47.490;19.030;2022-09-13T06:06:48;6.55;;;3.25;;
67979;SDS011;54760;47.490;19.030;2022-09-13T06:09:14;6.50;;;3.35;;
67979;SDS011;54760;47.490;19.030;2022-09-13T06:11:39;3.92;;;2.95;;
67979;SDS011;54760;47.490;19.030;2022-09-13T06:14:05;6.85;;;3.15;;
67979;SDS011;54760;47.490;19.030;2022-09-13T06:16:30;8.05;;;3.20;;
67979;SDS011;54760;47.490;19.030;2022-09-13T06:18:56;5.50;;;3.55;;
67979;SDS011;54760;47.490;19.030;2022-09-13T06:21:22;6.93;;;3.30;;
67979;SDS011;54760;47.490;19.030;2022-09-13T06:23:48;6.72;;;3.37;;
67979;SDS011;54760;47.490;19.030;2022-09-13T06:26:16;10.98;;;4.20;;
67979;SDS011;54760;47.490;19.030;2022-09-13T06:28:46;6.78;;;3.00;;
67979;SDS011;54760;47.490;19.030;2022-09-13T06:31:13;9.82;;;3.15;;
67979;SDS011;54760;47.490;19.030;2022-09-13T06:33:40;8.32;;;2.55;;
67979;SDS011;54760;47.490;19.030;2022-09-13T06:36:08;9.25;;;3.37;;
67979;SDS011;54760;47.490;19.030;2022-09-13T06:38:35;8.98;;;2.47;;
67979;SDS011;54760;47.490;19.030;2022-09-13T06:43:28;5.57;;;2.40;;
67979;SDS011;54760;47.490;19.030;2022-09-13T06:45:53;5.00;;;2.22;;
67979;SDS011;54760;47.490;19.030;2022-09-13T06:48:23;4.28;;;1.98;;
67979;SDS011;54760;47.490;19.030;2022-09-13T06:50:49;4.87;;;2.15;;
67979;SDS011;54760;47.490;19.030;2022-09-13T06:53:14;4.00;;;2.40;;
67979;SDS011;54760;47.490;19.030;2022-09-13T06:55:39;4.90;;;2.50;;
67979;SDS011;54760;47.490;19.030;2022-09-13T06:58:05;5.85;;;2.30;;
67979;SDS011;54760;47.490;19.030;2022-09-13T07:00:30;6.78;;;2.03;;
67979;SDS011;54760;47.490;19.030;2022-09-13T07:02:56;3.87;;;2.55;;
67979;SDS011;54760;47.490;19.030;2022-09-13T07:05:21;5.70;;;2.10;;
67979;SDS011;54760;47.490;19.030;2022-09-13T07:07:47;6.20;;;2.03;;
67979;SDS011;54760;47.490;19.030;2022-09-13T07:10:12;3.05;;;2.00;;
67979;SDS011;54760;47.490;19.030;2022-09-13T07:12:41;3.85;;;2.30;;
67979;SDS011;54760;47.490;19.030;2022-09-13T07:15:07;4.53;;;1.90;;
67979;SDS011;54760;47.490;19.030;2022-09-13T07:17:32;4.57;;;2.00;;
67979;SDS011;54760;47.490;19.030;2022-09-13T07:19:58;3.78;;;2.03;;
67979;SDS011;54760;47.490;19.030;2022-09-13T07:22:23;4.90;;;2.20;;
67979;SDS011;54760;47.490;19.030;2022-09-13T07:24:51;2.97;;;1.90;;
67979;SDS011;54760;47.490;19.030;2022-09-13T07:27:17;5.10;;;2.22;;
67979;SDS011;54760;47.490;19.030;2022-09-13T07:29:42;4.70;;;2.03;;
67979;SDS011;54760;47.490;19.030;2022-09-13T07:32:08;3.37;;;1.95;;
67979;SDS011;54760;47.490;19.030;2022-09-13T07:34:33;5.87;;;2.45;;
67979;SDS011;54760;47.490;19.030;2022-09-13T07:36:59;4.43;;;2.20;;
67979;SDS011;54760;47.490;19.030;2022-09-13T07:39:25;6.47;;;2.00;;
67979;SDS011;54760;47.490;19.030;2022-09-13T07:41:50;2.50;;;1.80;;
67979;SDS011;54760;47.490;19.030;2022-09-13T07:44:17;4.65;;;1.98;;
67979;SDS011;54760;47.490;19.030;2022-09-13T07:46:43;6.50;;;2.20;;
67979;SDS011;54760;47.490;19.030;2022-09-13T07:49:09;3.92;;;2.08;;
67979;SDS011;54760;47.490;19.030;2022-09-13T07:51:36;5.25;;;2.28;;
67979;SDS011;54760;47.490;19.030;2022-09-13T07:54:05;3.05;;;1.80;;
67979;SDS011;54760;47.490;19.030;2022-09-13T07:56:34;4.65;;;2.10;;
67979;SDS011;54760;47.490;19.030;2022-09-13T07:59:03;3.45;;;2.20;;
67979;SDS011;54760;47.490;19.030;2022-09-13T08:01:35;9.05;;;2.25;;
67979;SDS011;54760;47.490;19.030;2022-09-13T08:04:04;6.28;;;2.17;;
67979;SDS011;54760;47.490;19.030;2022-09-13T08:06:37;4.97;;;2.40;;
67979;SDS011;54760;47.490;19.030;2022-09-13T08:09:05;5.00;;;2.20;;
67979;SDS011;54760;47.490;19.030;2022-09-13T08:11:32;7.45;;;2.28;;
67979;SDS011;54760;47.490;19.030;2022-09-13T08:14:03;3.47;;;2.28;;
67979;SDS011;54760;47.490;19.030;2022-09-13T08:16:30;3.85;;;2.40;;
67979;SDS011;54760;47.490;19.030;2022-09-13T08:18:57;3.83;;;2.17;;
67979;SDS011;54760;47.490;19.030;2022-09-13T08:21:24;6.18;;;2.40;;
67979;SDS011;54760;47.490;19.030;2022-09-13T08:23:54;4.97;;;2.83;;
67979;SDS011;54760;47.490;19.030;2022-09-13T08:26:21;4.40;;;2.40;;
67979;SDS011;54760;47.490;19.030;2022-09-13T08:28:46;3.62;;;2.33;;
67979;SDS011;54760;47.490;19.030;2022-09-13T08:31:13;5.37;;;2.90;;
67979;SDS011;54760;47.490;19.030;2022-09-13T08:33:44;4.15;;;2.40;;
67979;SDS011;54760;47.490;19.030;2022-09-13T08:36:12;5.43;;;2.58;;
67979;SDS011;54760;47.490;19.030;2022-09-13T08:38:39;4.40;;;2.20;;
67979;SDS011;54760;47.490;19.030;2022-09-13T08:44:06;4.47;;;2.40;;
67979;SDS011;54760;47.490;19.030;2022-09-13T08:46:50;5.07;;;2.25;;
67979;SDS011;54760;47.490;19.030;2022-09-13T08:49:22;3.60;;;2.33;;
67979;SDS011;54760;47.490;19.030;2022-09-13T08:54:52;3.92;;;2.17;;
67979;SDS011;54760;47.490;19.030;2022-09-13T08:57:25;6.03;;;2.22;;
67979;SDS011;54760;47.490;19.030;2022-09-13T09:05:50;3.67;;;2.55;;
67979;SDS011;54760;47.490;19.030;2022-09-13T09:10:48;8.13;;;2.50;;
67979;SDS011;54760;47.490;19.030;2022-09-13T09:13:25;8.00;;;2.40;;
67979;SDS011;54760;47.490;19.030;2022-09-13T09:16:09;6.32;;;2.50;;
67979;SDS011;54760;47.490;19.030;2022-09-13T09:18:38;5.65;;;2.65;;
67979;SDS011;54760;47.490;19.030;2022-09-13T09:21:08;3.83;;;2.15;;
67979;SDS011;54760;47.490;19.030;2022-09-13T09:23:40;4.82;;;2.20;;
67979;SDS011;54760;47.490;19.030;2022-09-13T09:26:24;4.22;;;2.25;;
67979;SDS011;54760;47.490;19.030;2022-09-13T09:28:54;5.50;;;2.25;;
67979;SDS011;54760;47.490;19.030;2022-09-13T09:37:34;5.07;;;2.40;;
67979;SDS011;54760;47.490;19.030;2022-09-13T09:40:02;3.72;;;2.00;;
67979;SDS011;54760;47.490;19.030;2022-09-13T09:42:54;3.75;;;1.58;;
67979;SDS011;54760;47.490;19.030;2022-09-13T09:47:58;3.53;;;1.80;;
67979;SDS011;54760;47.490;19.030;2022-09-13T09:50:33;4.82;;;1.60;;
67979;SDS011;54760;47.490;19.030;2022-09-13T09:56:28;2.20;;;1.65;;
67979;SDS011;54760;47.490;19.030;2022-09-13T09:58:55;4.80;;;1.90;;
67979;SDS011;54760;47.490;19.030;2022-09-13T10:04:00;4.03;;;1.95;;
67979;SDS011;54760;47.490;19.030;2022-09-13T10:06:39;3.25;;;1.73;;
67979;SDS011;54760;47.490;19.030;2022-09-13T10:09:13;4.93;;;1.90;;
67979;SDS011;54760;47.490;19.030;2022-09-13T10:11:43;3.33;;;1.98;;
67979;SDS011;54760;47.490;19.030;2022-09-13T10:17:04;3.95;;;1.90;;
67979;SDS011;54760;47.490;19.030;2022-09-13T10:19:29;6.45;;;2.25;;
67979;SDS011;54760;47.490;19.030;2022-09-13T10:22:09;4.25;;;2.40;;
67979;SDS011;54760;47.490;19.030;2022-09-13T10:24:36;4.32;;;2.33;;
67979;SDS011;54760;47.490;19.030;2022-09-13T10:27:02;4.53;;;2.60;;
67979;SDS011;54760;47.490;19.030;2022-09-13T10:29:30;4.12;;;2.25;;
67979;SDS011;54760;47.490;19.030;2022-09-13T10:31:56;5.50;;;2.85;;
67979;SDS011;54760;47.490;19.030;2022-09-13T10:34:28;3.80;;;3.00;;
67979;SDS011;54760;47.490;19.030;2022-09-13T10:36:58;3.97;;;2.92;;
67979;SDS011;54760;47.490;19.030;2022-09-13T10:39:29;4.30;;;2.78;;
67979;SDS011;54760;47.490;19.030;2022-09-13T10:44:38;5.97;;;2.92;;
67979;SDS011;54760;47.490;19.030;2022-09-13T10:47:11;6.28;;;2.92;;
67979;SDS011;54760;47.490;19.030;2022-09-13T10:49:50;5.57;;;2.80;;
67979;SDS011;54760;47.490;19.030;2022-09-13T10:52:28;6.05;;;2.72;;
67979;SDS011;54760;47.490;19.030;2022-09-13T10:55:44;4.05;;;2.60;;
67979;SDS011;54760;47.490;19.030;2022-09-13T10:57:50;5.35;;;2.90;;
67979;SDS011;54760;47.490;19.030;2022-09-13T11:00:18;6.85;;;2.67;;
67979;SDS011;54760;47.490;19.030;2022-09-13T11:05:59;4.53;;;2.50;;
67979;SDS011;54760;47.490;19.030;2022-09-13T11:13:56;2.85;;;2.10;;
67979;SDS011;54760;47.490;19.030;2022-09-13T11:30:16;3.15;;;1.87;;
67979;SDS011;54760;47.490;19.030;2022-09-13T11:40:28;4.57;;;2.00;;
67979;SDS011;54760;47.490;19.030;2022-09-13T11:48:35;3.45;;;1.90;;
67979;SDS011;54760;47.490;19.030;2022-09-13T11:56:27;6.07;;;2.17;;
67979;SDS011;54760;47.490;19.030;2022-09-13T12:01:49;3.55;;;2.08;;
67979;SDS011;54760;47.490;19.030;2022-09-13T12:04:33;6.07;;;2.10;;
67979;SDS011;54760;47.490;19.030;2022-09-13T12:07:12;2.80;;;1.80;;
67979;SDS011;54760;47.490;19.030;2022-09-13T12:09:52;2.67;;;1.90;;
67979;SDS011;54760;47.490;19.030;2022-09-13T12:12:26;3.92;;;1.83;;
67979;SDS011;54760;47.490;19.030;2022-09-13T12:18:07;2.17;;;1.60;;
67979;SDS011;54760;47.490;19.030;2022-09-13T12:20:41;2.92;;;1.90;;
67979;SDS011;54760;47.490;19.030;2022-09-13T12:23:14;3.12;;;1.85;;
67979;SDS011;54760;47.490;19.030;2022-09-13T12:31:06;2.97;;;1.70;;
67979;SDS011;54760;47.490;19.030;2022-09-13T12:33:39;4.87;;;1.95;;
67979;SDS011;54760;47.490;19.030;2022-09-13T12:53:12;2.33;;;1.60;;
67979;SDS011;54760;47.490;19.030;2022-09-13T13:01:33;5.05;;;1.58;;
67979;SDS011;54760;47.490;19.030;2022-09-13T13:04:09;3.42;;;1.80;;
67979;SDS011;54760;47.490;19.030;2022-09-13T13:06:56;3.40;;;1.75;;
67979;SDS011;54760;47.490;19.030;2022-09-13T13:14:57;5.87;;;2.05;;
67979;SDS011;54760;47.490;19.030;2022-09-13T13:23:26;3.47;;;1.75;;
67979;SDS011;54760;47.490;19.030;2022-09-13T13:46:50;6.45;;;1.67;;
67979;SDS011;54760;47.490;19.030;2022-09-13T13:52:38;2.22;;;1.65;;
67979;SDS011;54760;47.490;19.030;2022-09-13T14:00:27;2.30;;;1.67;;
67979;SDS011;54760;47.490;19.030;2022-09-13T14:17:33;2.50;;;1.90;;
67979;SDS011;54760;47.490;19.030;2022-09-13T14:19:48;3.00;;;1.80;;
67979;SDS011;54760;47.490;19.030;2022-09-13T14:22:19;7.53;;;1.95;;
67979;SDS011;54760;47.490;19.030;2022-09-13T14:24:53;2.87;;;1.55;;
67979;SDS011;54760;47.490;19.030;2022-09-13T14:27:24;4.78;;;1.60;;
67979;SDS011;54760;47.490;19.030;2022-09-13T14:30:02;2.60;;;1.73;;
67979;SDS011;54760;47.490;19.030;2022-09-13T14:32:31;2.75;;;1.50;;
67979;SDS011;54760;47.490;19.030;2022-09-13T14:35:06;2.55;;;1.62;;
67979;SDS011;54760;47.490;19.030;2022-09-13T14:38:18;2.10;;;1.60;;
67979;SDS011;54760;47.490;19.030;2022-09-13T14:40:57;2.58;;;1.60;;
67979;SDS011;54760;47.490;19.030;2022-09-13T14:43:25;3.65;;;1.35;;
67979;SDS011;54760;47.490;19.030;2022-09-13T14:45:53;3.72;;;1.48;;
67979;SDS011;54760;47.490;19.030;2022-09-13T14:48:34;2.65;;;1.40;;
67979;SDS011;54760;47.490;19.030;2022-09-13T14:51:12;2.62;;;1.45;;
67979;SDS011;54760;47.490;19.030;2022-09-13T14:53:49;3.08;;;1.60;;
67979;SDS011;54760;47.490;19.030;2022-09-13T14:56:24;2.90;;;1.70;;
67979;SDS011;54760;47.490;19.030;2022-09-13T14:58:52;4.10;;;1.65;;
67979;SDS011;54760;47.490;19.030;2022-09-13T15:01:33;3.60;;;1.70;;
67979;SDS011;54760;47.490;19.030;2022-09-13T15:04:00;2.40;;;1.60;;
67979;SDS011;54760;47.490;19.030;2022-09-13T15:06:32;3.97;;;1.67;;
67979;SDS011;54760;47.490;19.030;2022-09-13T15:14:27;3.00;;;1.70;;
67979;SDS011;54760;47.490;19.030;2022-09-13T15:19:35;4.40;;;1.70;;
67979;SDS011;54760;47.490;19.030;2022-09-13T15:22:12;3.08;;;1.50;;
67979;SDS011;54760;47.490;19.030;2022-09-13T15:24:38;2.47;;;1.50;;
67979;SDS011;54760;47.490;19.030;2022-09-13T15:27:16;2.83;;;1.67;;
67979;SDS011;54760;47.490;19.030;2022-09-13T15:29:54;4.05;;;1.60;;
67979;SDS011;54760;47.490;19.030;2022-09-13T15:32:38;4.05;;;1.55;;
67979;SDS011;54760;47.490;19.030;2022-09-13T15:35:22;2.10;;;1.60;;
67979;SDS011;54760;47.490;19.030;2022-09-13T15:38:00;5.03;;;1.65;;
67979;SDS011;54760;47.490;19.030;2022-09-13T15:40:45;2.85;;;1.50;;
67979;SDS011;54760;47.490;19.030;2022-09-13T15:43:21;3.62;;;1.60;;
67979;SDS011;54760;47.490;19.030;2022-09-13T15:45:47;2.42;;;1.80;;
67979;SDS011;54760;47.490;19.030;2022-09-13T15:48:15;4.10;;;1.70;;
67979;SDS011;54760;47.490;19.030;2022-09-13T15:51:05;3.47;;;1.40;;
67979;SDS011;54760;47.490;19.030;2022-09-13T15:53:36;2.37;;;1.50;;
67979;SDS011;54760;47.490;19.030;2022-09-13T15:56:04;2.95;;;1.70;;
67979;SDS011;54760;47.490;19.030;2022-09-13T15:58:31;3.72;;;1.83;;
67979;SDS011;54760;47.490;19.030;2022-09-13T16:00:57;2.20;;;1.60;;
67979;SDS011;54760;47.490;19.030;2022-09-13T16:03:22;5.70;;;1.87;;
67979;SDS011;54760;47.490;19.030;2022-09-13T16:05:48;3.92;;;2.00;;
67979;SDS011;54760;47.490;19.030;2022-09-13T16:08:13;5.68;;;1.50;;
67979;SDS011;54760;47.490;19.030;2022-09-13T16:10:39;5.90;;;1.60;;
67979;SDS011;54760;47.490;19.030;2022-09-13T16:13:04;3.10;;;1.90;;
67979;SDS011;54760;47.490;19.030;2022-09-13T16:15:29;3.75;;;1.67;;
67979;SDS011;54760;47.490;19.030;2022-09-13T16:17:55;2.00;;;1.65;;
67979;SDS011;54760;47.490;19.030;2022-09-13T16:20:21;2.58;;;1.65;;
67979;SDS011;54760;47.490;19.030;2022-09-13T16:22:46;2.92;;;1.95;;
67979;SDS011;54760;47.490;19.030;2022-09-13T16:25:12;3.42;;;1.80;;
67979;SDS011;54760;47.490;19.030;2022-09-13T16:27:39;4.60;;;1.70;;
67979;SDS011;54760;47.490;19.030;2022-09-13T16:30:11;3.17;;;1.98;;
67979;SDS011;54760;47.490;19.030;2022-09-13T16:32:38;4.72;;;1.70;;
67979;SDS011;54760;47.490;19.030;2022-09-13T16:35:05;6.97;;;2.10;;
67979;SDS011;54760;47.490;19.030;2022-09-13T16:37:31;7.22;;;2.20;;
67979;SDS011;54760;47.490;19.030;2022-09-13T16:39:56;4.75;;;1.70;;
67979;SDS011;54760;47.490;19.030;2022-09-13T16:42:22;2.92;;;1.90;;
67979;SDS011;54760;47.490;19.030;2022-09-13T16:44:48;2.80;;;1.80;;
67979;SDS011;54760;47.490;19.030;2022-09-13T16:47:13;4.25;;;1.55;;
67979;SDS011;54760;47.490;19.030;2022-09-13T16:49:38;2.47;;;1.65;;
67979;SDS011;54760;47.490;19.030;2022-09-13T16:52:04;6.82;;;2.20;;
67979;SDS011;54760;47.490;19.030;2022-09-13T16:54:30;4.50;;;2.20;;
67979;SDS011;54760;47.490;19.030;2022-09-13T16:56:55;4.20;;;2.10;;
67979;SDS011;54760;47.490;19.030;2022-09-13T16:59:22;8.38;;;2.42;;
67979;SDS011;54760;47.490;19.030;2022-09-13T17:01:48;5.32;;;2.50;;
67979;SDS011;54760;47.490;19.030;2022-09-13T17:04:13;7.93;;;2.85;;
67979;SDS011;54760;47.490;19.030;2022-09-13T17:06:39;5.40;;;2.42;;
67979;SDS011;54760;47.490;19.030;2022-09-13T17:09:05;12.35;;;3.92;;
67979;SDS011;54760;47.490;19.030;2022-09-13T17:11:33;5.57;;;2.70;;
67979;SDS011;54760;47.490;19.030;2022-09-13T17:14:01;5.72;;;2.97;;
67979;SDS011;54760;47.490;19.030;2022-09-13T17:16:41;7.90;;;2.67;;
67979;SDS011;54760;47.490;19.030;2022-09-13T17:19:16;5.20;;;3.05;;
67979;SDS011;54760;47.490;19.030;2022-09-13T17:21:57;10.30;;;2.92;;
67979;SDS011;54760;47.490;19.030;2022-09-13T17:24:24;6.18;;;2.65;;
67979;SDS011;54760;47.490;19.030;2022-09-13T17:26:51;5.25;;;2.80;;
67979;SDS011;54760;47.490;19.030;2022-09-13T17:29:16;6.85;;;3.33;;
67979;SDS011;54760;47.490;19.030;2022-09-13T17:31:43;6.62;;;2.72;;
67979;SDS011;54760;47.490;19.030;2022-09-13T17:34:09;3.95;;;2.35;;
67979;SDS011;54760;47.490;19.030;2022-09-13T17:36:35;5.22;;;2.60;;
67979;SDS011;54760;47.490;19.030;2022-09-13T17:39:05;3.35;;;2.05;;
67979;SDS011;54760;47.490;19.030;2022-09-13T17:41:31;7.43;;;2.58;;
67979;SDS011;54760;47.490;19.030;2022-09-13T17:43:57;8.48;;;2.80;;
67979;SDS011;54760;47.490;19.030;2022-09-13T17:46:24;7.15;;;2.87;;
67979;SDS011;54760;47.490;19.030;2022-09-13T17:48:53;8.93;;;2.47;;
67979;SDS011;54760;47.490;19.030;2022-09-13T17:51:20;6.55;;;2.50;;
67979;SDS011;54760;47.490;19.030;2022-09-13T17:53:52;5.28;;;2.47;;
67979;SDS011;54760;47.490;19.030;2022-09-13T17:56:24;6.43;;;2.80;;
67979;SDS011;54760;47.490;19.030;2022-09-13T17:58:53;8.45;;;3.35;;
67979;SDS011;54760;47.490;19.030;2022-09-13T18:01:20;7.20;;;3.10;;
67979;SDS011;54760;47.490;19.030;2022-09-13T18:03:45;4.97;;;2.90;;
67979;SDS011;54760;47.490;19.030;2022-09-13T18:06:10;10.70;;;3.55;;
67979;SDS011;54760;47.490;19.030;2022-09-13T18:08:38;8.07;;;3.47;;
67979;SDS011;54760;47.490;19.030;2022-09-13T18:11:04;9.55;;;3.05;;
67979;SDS011;54760;47.490;19.030;2022-09-13T18:13:30;5.60;;;3.10;;
67979;SDS011;54760;47.490;19.030;2022-09-13T18:16:15;7.07;;;2.83;;
67979;SDS011;54760;47.490;19.030;2022-09-13T18:18:43;5.62;;;3.10;;
67979;SDS011;54760;47.490;19.030;2022-09-13T18:21:10;5.15;;;2.70;;
67979;SDS011;54760;47.490;19.030;2022-09-13T18:23:38;4.53;;;2.60;;
67979;SDS011;54760;47.490;19.030;2022-09-13T18:26:05;6.55;;;2.85;;
67979;SDS011;54760;47.490;19.030;2022-09-13T18:28:33;8.32;;;3.47;;
67979;SDS011;54760;47.490;19.030;2022-09-13T18:30:59;6.50;;;3.03;;
67979;SDS011;54760;47.490;19.030;2022-09-13T18:33:27;6.12;;;2.70;;
67979;SDS011;54760;47.490;19.030;2022-09-13T18:36:06;7.05;;;2.72;;
67979;SDS011;54760;47.490;19.030;2022-09-13T18:38:34;6.18;;;3.05;;
67979;SDS011;54760;47.490;19.030;2022-09-13T18:43:34;13.40;;;4.00;;